Aeroporto :
LOGIN :

Iscrizione | Disclaimer

   EN    FR    IT 

 










Sommario :    VFR   VFR Marginale   IFR   IFR Intensivo   IFR Molto Intensivo
Visibilità : 
Base nubi : 
>= 8 km
>= 3000ft
5 / 8 km
1000 / 3000 ft
1500m / 5 km
500 / 1000 ft
800 / 1500m
200 / 500 ft
< 800m
< 200 ft
Simboli :   Temporali  Nebbia  Neve Forte  Precipitazioni Forti  Vento > 20 kt
SIGMETs :   Varie  Temporali  Ghiacco  Turbolenza  Onda orograficha  Ceneri Vulcaniche






- Altitudine del aeroporto : 56 ft
- Codice IATA : ILY


EGPI - Islay

ULTIMO METAR :
  • 221250Z 01010KT 330V060 9999 SCT018 BKN027 08/04 Q0995

METARs OBSOLETI :
  • 221220Z 05010KT 010V110 9999 SCT027 08/04 Q0995
  • 221150Z 09015KT 060V120 9999 FEW022 SCT033 08/04 Q0995
  • 221120Z 08014KT 050V120 9999 FEW022 08/04 Q0995
  • 221050Z 09016KT 050V140 9999 FEW022 08/04 Q0995
  • 221020Z 07009KT 020V120 9999 FEW022 07/04 Q0995
  • 220950Z AUTO 09011KT 9999 NCD 07/04 Q0995

TAF TAF EGPI
Valido dal 22 a 12 ore il 22 a 19 ore UTC


221056Z 2212/2219 08012KT 9999 FEW025
PROB30
TEMPO 2212/2219 10015G25KT



MetMap, La meteo Aeronautica in un colpo d'occhio ! - Copyright ORBIFLY Dicembre 2007 - Disclaimer

ORBIFLY MET'MAP TEAM :

Programmazione e sviluppo : Alexandra Zaïnal
Concezione e sviluppo : Baudouin d'Aumeries
Co-Programmazione e sviluppo : Marc-Olivier Méhu
Supporto tecnico e logistico : Manuel Goepfert
Aiuto per la traduzione : Arnaldo La Scala

Contatto : metmap@orbifly.com




FONTI E CREDITI :

   NOAA